sensor_id;sensor_type;location;lat;lon;timestamp;P1;durP1;ratioP1;P2;durP2;ratioP2
26040;SDS011;13816;53.628;9.950;2023-07-13T00:01:53;3.23;;;2.10;;
26040;SDS011;13816;53.628;9.950;2023-07-13T00:04:22;5.60;;;2.87;;
26040;SDS011;13816;53.628;9.950;2023-07-13T00:06:51;4.77;;;2.87;;
26040;SDS011;13816;53.628;9.950;2023-07-13T00:09:19;10.03;;;2.77;;
26040;SDS011;13816;53.628;9.950;2023-07-13T00:11:50;8.83;;;2.97;;
26040;SDS011;13816;53.628;9.950;2023-07-13T00:14:18;8.90;;;2.97;;
26040;SDS011;13816;53.628;9.950;2023-07-13T00:16:46;3.97;;;2.60;;
26040;SDS011;13816;53.628;9.950;2023-07-13T00:19:13;4.17;;;2.70;;
26040;SDS011;13816;53.628;9.950;2023-07-13T00:21:41;10.07;;;2.70;;
26040;SDS011;13816;53.628;9.950;2023-07-13T00:24:11;7.17;;;3.10;;
26040;SDS011;13816;53.628;9.950;2023-07-13T00:26:42;4.07;;;3.00;;
26040;SDS011;13816;53.628;9.950;2023-07-13T00:29:12;7.67;;;2.80;;
26040;SDS011;13816;53.628;9.950;2023-07-13T00:31:40;5.47;;;3.07;;
26040;SDS011;13816;53.628;9.950;2023-07-13T00:34:08;3.17;;;2.80;;
26040;SDS011;13816;53.628;9.950;2023-07-13T00:36:35;8.33;;;3.40;;
26040;SDS011;13816;53.628;9.950;2023-07-13T00:39:02;5.73;;;3.20;;
26040;SDS011;13816;53.628;9.950;2023-07-13T00:41:31;7.20;;;3.47;;
26040;SDS011;13816;53.628;9.950;2023-07-13T00:43:58;8.97;;;3.03;;
26040;SDS011;13816;53.628;9.950;2023-07-13T00:46:28;7.23;;;2.60;;
26040;SDS011;13816;53.628;9.950;2023-07-13T00:48:57;3.77;;;2.70;;
26040;SDS011;13816;53.628;9.950;2023-07-13T00:51:28;4.50;;;2.40;;
26040;SDS011;13816;53.628;9.950;2023-07-13T00:53:58;4.87;;;3.17;;
26040;SDS011;13816;53.628;9.950;2023-07-13T00:56:27;9.80;;;3.13;;
26040;SDS011;13816;53.628;9.950;2023-07-13T00:58:55;6.00;;;3.37;;
26040;SDS011;13816;53.628;9.950;2023-07-13T01:01:23;3.80;;;2.87;;
26040;SDS011;13816;53.628;9.950;2023-07-13T01:03:51;4.10;;;3.30;;
26040;SDS011;13816;53.628;9.950;2023-07-13T01:06:18;9.33;;;3.60;;
26040;SDS011;13816;53.628;9.950;2023-07-13T01:08:46;5.80;;;3.30;;
26040;SDS011;13816;53.628;9.950;2023-07-13T01:11:17;4.90;;;3.40;;
26040;SDS011;13816;53.628;9.950;2023-07-13T01:13:45;4.73;;;2.90;;
26040;SDS011;13816;53.628;9.950;2023-07-13T01:16:32;5.43;;;3.20;;
26040;SDS011;13816;53.628;9.950;2023-07-13T01:19:00;5.37;;;3.83;;
26040;SDS011;13816;53.628;9.950;2023-07-13T01:21:28;9.00;;;3.27;;
26040;SDS011;13816;53.628;9.950;2023-07-13T01:23:58;13.90;;;3.83;;
26040;SDS011;13816;53.628;9.950;2023-07-13T01:26:26;8.43;;;3.47;;
26040;SDS011;13816;53.628;9.950;2023-07-13T01:28:53;6.80;;;4.27;;
26040;SDS011;13816;53.628;9.950;2023-07-13T01:31:22;7.17;;;4.50;;
26040;SDS011;13816;53.628;9.950;2023-07-13T01:33:50;9.67;;;4.80;;
26040;SDS011;13816;53.628;9.950;2023-07-13T01:36:19;7.87;;;4.33;;
26040;SDS011;13816;53.628;9.950;2023-07-13T01:38:47;5.10;;;4.40;;
26040;SDS011;13816;53.628;9.950;2023-07-13T01:41:15;11.67;;;5.57;;
26040;SDS011;13816;53.628;9.950;2023-07-13T01:43:42;10.40;;;5.30;;
26040;SDS011;13816;53.628;9.950;2023-07-13T01:46:10;7.00;;;5.43;;
26040;SDS011;13816;53.628;9.950;2023-07-13T01:48:49;5.70;;;4.77;;
26040;SDS011;13816;53.628;9.950;2023-07-13T01:51:17;7.80;;;5.17;;
26040;SDS011;13816;53.628;9.950;2023-07-13T01:53:45;8.37;;;5.50;;
26040;SDS011;13816;53.628;9.950;2023-07-13T01:56:12;7.20;;;4.80;;
26040;SDS011;13816;53.628;9.950;2023-07-13T01:58:40;6.57;;;5.63;;
26040;SDS011;13816;53.628;9.950;2023-07-13T02:01:07;10.97;;;5.20;;
26040;SDS011;13816;53.628;9.950;2023-07-13T02:03:35;8.40;;;5.90;;
26040;SDS011;13816;53.628;9.950;2023-07-13T02:06:02;6.73;;;5.13;;
26040;SDS011;13816;53.628;9.950;2023-07-13T02:08:30;6.20;;;5.40;;
26040;SDS011;13816;53.628;9.950;2023-07-13T02:10:58;10.10;;;6.43;;
26040;SDS011;13816;53.628;9.950;2023-07-13T02:13:25;11.03;;;6.07;;
26040;SDS011;13816;53.628;9.950;2023-07-13T02:15:52;13.83;;;6.00;;
26040;SDS011;13816;53.628;9.950;2023-07-13T02:18:20;11.80;;;6.50;;
26040;SDS011;13816;53.628;9.950;2023-07-13T02:20:47;16.00;;;5.80;;
26040;SDS011;13816;53.628;9.950;2023-07-13T02:23:15;8.13;;;5.40;;
26040;SDS011;13816;53.628;9.950;2023-07-13T02:25:42;8.47;;;5.70;;
26040;SDS011;13816;53.628;9.950;2023-07-13T02:28:10;9.17;;;6.50;;
26040;SDS011;13816;53.628;9.950;2023-07-13T02:30:37;15.73;;;6.23;;
26040;SDS011;13816;53.628;9.950;2023-07-13T02:33:05;7.97;;;6.00;;
26040;SDS011;13816;53.628;9.950;2023-07-13T02:35:32;8.90;;;6.27;;
26040;SDS011;13816;53.628;9.950;2023-07-13T02:38:00;13.00;;;6.37;;
26040;SDS011;13816;53.628;9.950;2023-07-13T02:40:30;8.23;;;6.07;;
26040;SDS011;13816;53.628;9.950;2023-07-13T02:42:59;15.53;;;7.13;;
26040;SDS011;13816;53.628;9.950;2023-07-13T02:45:30;7.97;;;6.73;;
26040;SDS011;13816;53.628;9.950;2023-07-13T02:47:58;10.30;;;6.13;;
26040;SDS011;13816;53.628;9.950;2023-07-13T02:50:25;8.10;;;6.10;;
26040;SDS011;13816;53.628;9.950;2023-07-13T02:52:52;8.87;;;6.70;;
26040;SDS011;13816;53.628;9.950;2023-07-13T02:55:20;10.43;;;6.50;;
26040;SDS011;13816;53.628;9.950;2023-07-13T02:57:47;9.93;;;6.43;;
26040;SDS011;13816;53.628;9.950;2023-07-13T03:00:15;11.40;;;7.40;;
26040;SDS011;13816;53.628;9.950;2023-07-13T03:02:43;9.37;;;7.47;;
26040;SDS011;13816;53.628;9.950;2023-07-13T03:05:10;13.30;;;7.30;;
26040;SDS011;13816;53.628;9.950;2023-07-13T03:07:39;7.97;;;6.57;;
26040;SDS011;13816;53.628;9.950;2023-07-13T03:10:08;7.17;;;6.40;;
26040;SDS011;13816;53.628;9.950;2023-07-13T03:12:42;10.23;;;6.30;;
26040;SDS011;13816;53.628;9.950;2023-07-13T03:15:18;11.40;;;5.80;;
26040;SDS011;13816;53.628;9.950;2023-07-13T03:17:47;13.27;;;7.10;;
26040;SDS011;13816;53.628;9.950;2023-07-13T03:20:15;9.00;;;7.00;;
26040;SDS011;13816;53.628;9.950;2023-07-13T03:22:42;13.10;;;6.73;;
26040;SDS011;13816;53.628;9.950;2023-07-13T03:25:11;7.40;;;6.13;;
26040;SDS011;13816;53.628;9.950;2023-07-13T03:27:39;10.63;;;6.33;;
26040;SDS011;13816;53.628;9.950;2023-07-13T03:30:08;8.07;;;6.50;;
26040;SDS011;13816;53.628;9.950;2023-07-13T03:32:36;8.97;;;6.10;;
26040;SDS011;13816;53.628;9.950;2023-07-13T03:35:04;14.47;;;6.40;;
26040;SDS011;13816;53.628;9.950;2023-07-13T03:37:32;10.97;;;6.20;;
26040;SDS011;13816;53.628;9.950;2023-07-13T03:39:59;16.20;;;6.30;;
26040;SDS011;13816;53.628;9.950;2023-07-13T03:42:30;12.00;;;7.20;;
26040;SDS011;13816;53.628;9.950;2023-07-13T03:44:57;8.43;;;7.03;;
26040;SDS011;13816;53.628;9.950;2023-07-13T03:47:25;11.27;;;6.03;;
26040;SDS011;13816;53.628;9.950;2023-07-13T03:49:54;7.53;;;5.50;;
26040;SDS011;13816;53.628;9.950;2023-07-13T03:52:21;10.37;;;6.60;;
26040;SDS011;13816;53.628;9.950;2023-07-13T03:54:49;6.67;;;5.67;;
26040;SDS011;13816;53.628;9.950;2023-07-13T03:57:16;6.23;;;5.70;;
26040;SDS011;13816;53.628;9.950;2023-07-13T03:59:44;9.13;;;5.97;;
26040;SDS011;13816;53.628;9.950;2023-07-13T04:02:11;7.60;;;6.90;;
26040;SDS011;13816;53.628;9.950;2023-07-13T04:04:39;12.20;;;6.63;;
26040;SDS011;13816;53.628;9.950;2023-07-13T04:07:09;8.07;;;5.80;;
26040;SDS011;13816;53.628;9.950;2023-07-13T04:09:38;8.37;;;6.30;;
26040;SDS011;13816;53.628;9.950;2023-07-13T04:12:06;10.33;;;6.70;;
26040;SDS011;13816;53.628;9.950;2023-07-13T04:14:33;7.80;;;6.13;;
26040;SDS011;13816;53.628;9.950;2023-07-13T04:17:01;9.27;;;5.50;;
26040;SDS011;13816;53.628;9.950;2023-07-13T04:19:28;8.03;;;6.20;;
26040;SDS011;13816;53.628;9.950;2023-07-13T04:21:56;12.37;;;5.53;;
26040;SDS011;13816;53.628;9.950;2023-07-13T04:24:23;15.20;;;6.30;;
26040;SDS011;13816;53.628;9.950;2023-07-13T04:26:55;11.63;;;5.57;;
26040;SDS011;13816;53.628;9.950;2023-07-13T04:29:25;13.73;;;6.20;;
26040;SDS011;13816;53.628;9.950;2023-07-13T04:31:53;16.80;;;6.30;;
26040;SDS011;13816;53.628;9.950;2023-07-13T04:34:20;11.83;;;6.27;;
26040;SDS011;13816;53.628;9.950;2023-07-13T04:36:48;9.60;;;5.40;;
26040;SDS011;13816;53.628;9.950;2023-07-13T04:39:16;10.77;;;5.37;;
26040;SDS011;13816;53.628;9.950;2023-07-13T04:41:43;16.13;;;6.60;;
26040;SDS011;13816;53.628;9.950;2023-07-13T04:44:10;12.20;;;6.30;;
26040;SDS011;13816;53.628;9.950;2023-07-13T04:46:38;12.17;;;5.87;;
26040;SDS011;13816;53.628;9.950;2023-07-13T04:49:05;9.87;;;6.13;;
26040;SDS011;13816;53.628;9.950;2023-07-13T04:51:33;11.57;;;6.43;;
26040;SDS011;13816;53.628;9.950;2023-07-13T04:54:00;15.10;;;6.93;;
26040;SDS011;13816;53.628;9.950;2023-07-13T04:56:27;19.80;;;6.97;;
26040;SDS011;13816;53.628;9.950;2023-07-13T04:58:56;13.67;;;6.03;;
26040;SDS011;13816;53.628;9.950;2023-07-13T05:01:24;21.90;;;7.47;;
26040;SDS011;13816;53.628;9.950;2023-07-13T05:03:52;10.47;;;6.60;;
26040;SDS011;13816;53.628;9.950;2023-07-13T05:06:22;11.20;;;5.87;;
26040;SDS011;13816;53.628;9.950;2023-07-13T05:08:50;17.40;;;6.47;;
26040;SDS011;13816;53.628;9.950;2023-07-13T05:11:17;13.60;;;7.10;;
26040;SDS011;13816;53.628;9.950;2023-07-13T05:13:45;15.60;;;6.60;;
26040;SDS011;13816;53.628;9.950;2023-07-13T05:16:12;10.63;;;6.40;;
26040;SDS011;13816;53.628;9.950;2023-07-13T05:18:40;19.07;;;7.63;;
26040;SDS011;13816;53.628;9.950;2023-07-13T05:21:09;9.10;;;6.67;;
26040;SDS011;13816;53.628;9.950;2023-07-13T05:23:37;16.13;;;6.43;;
26040;SDS011;13816;53.628;9.950;2023-07-13T05:26:05;16.60;;;6.70;;
26040;SDS011;13816;53.628;9.950;2023-07-13T05:28:35;14.27;;;7.33;;
26040;SDS011;13816;53.628;9.950;2023-07-13T05:31:02;24.70;;;6.70;;
26040;SDS011;13816;53.628;9.950;2023-07-13T05:33:33;15.27;;;6.50;;
26040;SDS011;13816;53.628;9.950;2023-07-13T05:36:03;12.03;;;6.57;;
26040;SDS011;13816;53.628;9.950;2023-07-13T05:38:30;17.07;;;6.73;;
26040;SDS011;13816;53.628;9.950;2023-07-13T05:40:58;17.07;;;6.90;;
26040;SDS011;13816;53.628;9.950;2023-07-13T05:43:27;15.50;;;6.43;;
26040;SDS011;13816;53.628;9.950;2023-07-13T05:45:55;17.03;;;6.00;;
26040;SDS011;13816;53.628;9.950;2023-07-13T05:48:23;15.03;;;7.10;;
26040;SDS011;13816;53.628;9.950;2023-07-13T05:50:51;17.63;;;6.60;;
26040;SDS011;13816;53.628;9.950;2023-07-13T05:53:18;15.23;;;7.27;;
26040;SDS011;13816;53.628;9.950;2023-07-13T05:55:46;11.60;;;7.17;;
26040;SDS011;13816;53.628;9.950;2023-07-13T05:58:14;16.17;;;7.40;;
26040;SDS011;13816;53.628;9.950;2023-07-13T06:00:41;13.83;;;6.83;;
26040;SDS011;13816;53.628;9.950;2023-07-13T06:03:09;23.00;;;7.67;;
26040;SDS011;13816;53.628;9.950;2023-07-13T06:05:36;27.83;;;7.80;;
26040;SDS011;13816;53.628;9.950;2023-07-13T06:08:07;18.50;;;7.27;;
26040;SDS011;13816;53.628;9.950;2023-07-13T06:10:35;24.80;;;7.20;;
26040;SDS011;13816;53.628;9.950;2023-07-13T06:13:03;14.03;;;6.90;;
26040;SDS011;13816;53.628;9.950;2023-07-13T06:15:30;18.63;;;6.70;;
26040;SDS011;13816;53.628;9.950;2023-07-13T06:17:58;20.90;;;6.57;;
26040;SDS011;13816;53.628;9.950;2023-07-13T06:20:25;14.97;;;6.80;;
26040;SDS011;13816;53.628;9.950;2023-07-13T06:22:53;20.13;;;6.77;;
26040;SDS011;13816;53.628;9.950;2023-07-13T06:25:20;17.73;;;6.73;;
26040;SDS011;13816;53.628;9.950;2023-07-13T06:27:47;21.50;;;6.50;;
26040;SDS011;13816;53.628;9.950;2023-07-13T06:30:15;17.67;;;6.80;;
26040;SDS011;13816;53.628;9.950;2023-07-13T06:32:42;15.83;;;7.00;;
26040;SDS011;13816;53.628;9.950;2023-07-13T06:35:12;14.23;;;6.30;;
26040;SDS011;13816;53.628;9.950;2023-07-13T06:37:40;23.90;;;6.87;;
26040;SDS011;13816;53.628;9.950;2023-07-13T06:40:07;17.47;;;5.80;;
26040;SDS011;13816;53.628;9.950;2023-07-13T06:42:35;20.70;;;6.77;;
26040;SDS011;13816;53.628;9.950;2023-07-13T06:45:04;16.43;;;5.57;;
26040;SDS011;13816;53.628;9.950;2023-07-13T06:47:32;16.03;;;5.57;;
26040;SDS011;13816;53.628;9.950;2023-07-13T06:50:00;18.67;;;6.10;;
26040;SDS011;13816;53.628;9.950;2023-07-13T06:52:28;14.80;;;5.23;;
26040;SDS011;13816;53.628;9.950;2023-07-13T06:54:55;12.00;;;5.53;;
26040;SDS011;13816;53.628;9.950;2023-07-13T06:57:23;15.73;;;5.10;;
26040;SDS011;13816;53.628;9.950;2023-07-13T06:59:50;20.43;;;4.90;;
26040;SDS011;13816;53.628;9.950;2023-07-13T07:02:17;17.17;;;4.90;;
26040;SDS011;13816;53.628;9.950;2023-07-13T07:04:45;13.13;;;4.73;;
26040;SDS011;13816;53.628;9.950;2023-07-13T07:07:12;13.70;;;4.47;;
26040;SDS011;13816;53.628;9.950;2023-07-13T07:09:40;9.47;;;4.57;;
26040;SDS011;13816;53.628;9.950;2023-07-13T07:12:07;14.10;;;4.03;;
26040;SDS011;13816;53.628;9.950;2023-07-13T07:14:35;11.40;;;4.60;;
26040;SDS011;13816;53.628;9.950;2023-07-13T07:17:02;13.07;;;4.37;;
26040;SDS011;13816;53.628;9.950;2023-07-13T07:19:30;18.20;;;4.30;;
26040;SDS011;13816;53.628;9.950;2023-07-13T07:21:58;14.27;;;3.90;;
26040;SDS011;13816;53.628;9.950;2023-07-13T07:24:25;16.13;;;4.73;;
26040;SDS011;13816;53.628;9.950;2023-07-13T07:26:53;13.80;;;3.90;;
26040;SDS011;13816;53.628;9.950;2023-07-13T07:29:23;14.13;;;3.93;;
26040;SDS011;13816;53.628;9.950;2023-07-13T07:31:55;13.30;;;3.87;;
26040;SDS011;13816;53.628;9.950;2023-07-13T07:34:25;16.80;;;4.57;;
26040;SDS011;13816;53.628;9.950;2023-07-13T07:36:53;14.00;;;4.00;;
26040;SDS011;13816;53.628;9.950;2023-07-13T07:39:24;14.50;;;3.73;;
26040;SDS011;13816;53.628;9.950;2023-07-13T07:41:51;9.43;;;3.70;;
26040;SDS011;13816;53.628;9.950;2023-07-13T07:44:22;13.80;;;4.13;;
26040;SDS011;13816;53.628;9.950;2023-07-13T07:46:50;8.80;;;4.17;;
26040;SDS011;13816;53.628;9.950;2023-07-13T07:49:17;12.70;;;3.17;;
26040;SDS011;13816;53.628;9.950;2023-07-13T07:51:45;22.00;;;4.33;;
26040;SDS011;13816;53.628;9.950;2023-07-13T07:54:13;14.57;;;4.20;;
26040;SDS011;13816;53.628;9.950;2023-07-13T07:56:52;16.77;;;4.03;;
26040;SDS011;13816;53.628;9.950;2023-07-13T07:59:22;15.40;;;4.40;;
26040;SDS011;13816;53.628;9.950;2023-07-13T08:01:53;16.33;;;3.70;;
26040;SDS011;13816;53.628;9.950;2023-07-13T08:04:23;13.90;;;4.83;;
26040;SDS011;13816;53.628;9.950;2023-07-13T08:06:53;18.57;;;4.30;;
26040;SDS011;13816;53.628;9.950;2023-07-13T08:09:22;12.40;;;3.53;;
26040;SDS011;13816;53.628;9.950;2023-07-13T08:11:50;9.17;;;3.03;;
26040;SDS011;13816;53.628;9.950;2023-07-13T08:14:21;9.80;;;2.97;;
26040;SDS011;13816;53.628;9.950;2023-07-13T08:16:49;12.03;;;3.97;;
26040;SDS011;13816;53.628;9.950;2023-07-13T08:19:16;7.27;;;3.07;;
26040;SDS011;13816;53.628;9.950;2023-07-13T08:21:44;14.47;;;4.00;;
26040;SDS011;13816;53.628;9.950;2023-07-13T08:24:11;20.97;;;4.20;;
26040;SDS011;13816;53.628;9.950;2023-07-13T08:26:39;12.53;;;3.63;;
26040;SDS011;13816;53.628;9.950;2023-07-13T08:29:06;13.77;;;4.17;;
26040;SDS011;13816;53.628;9.950;2023-07-13T08:31:33;7.40;;;2.87;;
26040;SDS011;13816;53.628;9.950;2023-07-13T08:34:01;9.27;;;3.00;;
26040;SDS011;13816;53.628;9.950;2023-07-13T08:36:28;11.87;;;3.40;;
26040;SDS011;13816;53.628;9.950;2023-07-13T08:38:56;13.63;;;4.37;;
26040;SDS011;13816;53.628;9.950;2023-07-13T08:41:23;15.07;;;3.93;;
26040;SDS011;13816;53.628;9.950;2023-07-13T08:43:51;16.63;;;3.80;;
26040;SDS011;13816;53.628;9.950;2023-07-13T08:48:59;14.10;;;3.73;;
26040;SDS011;13816;53.628;9.950;2023-07-13T08:51:36;10.77;;;3.23;;
26040;SDS011;13816;53.628;9.950;2023-07-13T08:54:09;9.00;;;2.83;;
26040;SDS011;13816;53.628;9.950;2023-07-13T08:56:37;17.23;;;3.23;;
26040;SDS011;13816;53.628;9.950;2023-07-13T08:59:09;10.00;;;3.00;;
26040;SDS011;13816;53.628;9.950;2023-07-13T09:04:25;10.03;;;2.53;;
26040;SDS011;13816;53.628;9.950;2023-07-13T09:06:59;9.27;;;2.87;;
26040;SDS011;13816;53.628;9.950;2023-07-13T09:14:43;7.10;;;3.30;;
26040;SDS011;13816;53.628;9.950;2023-07-13T09:17:12;12.17;;;3.00;;
26040;SDS011;13816;53.628;9.950;2023-07-13T09:19:41;7.30;;;2.63;;
26040;SDS011;13816;53.628;9.950;2023-07-13T09:22:11;8.37;;;3.00;;
26040;SDS011;13816;53.628;9.950;2023-07-13T09:27:30;8.40;;;2.60;;
26040;SDS011;13816;53.628;9.950;2023-07-13T09:32:47;10.60;;;3.50;;
26040;SDS011;13816;53.628;9.950;2023-07-13T09:35:17;10.40;;;2.90;;
26040;SDS011;13816;53.628;9.950;2023-07-13T09:37:45;4.83;;;2.40;;
26040;SDS011;13816;53.628;9.950;2023-07-13T09:42:59;12.33;;;3.17;;
26040;SDS011;13816;53.628;9.950;2023-07-13T09:45:29;7.90;;;2.47;;
26040;SDS011;13816;53.628;9.950;2023-07-13T09:48:00;9.93;;;2.67;;
26040;SDS011;13816;53.628;9.950;2023-07-13T09:50:30;11.17;;;2.60;;
26040;SDS011;13816;53.628;9.950;2023-07-13T09:52:58;9.73;;;3.20;;
26040;SDS011;13816;53.628;9.950;2023-07-13T09:55:32;12.50;;;2.83;;
26040;SDS011;13816;53.628;9.950;2023-07-13T09:58:14;5.80;;;2.50;;
26040;SDS011;13816;53.628;9.950;2023-07-13T10:00:42;4.50;;;2.40;;
26040;SDS011;13816;53.628;9.950;2023-07-13T10:03:19;9.10;;;3.10;;
26040;SDS011;13816;53.628;9.950;2023-07-13T10:05:48;12.80;;;2.93;;
26040;SDS011;13816;53.628;9.950;2023-07-13T10:10:46;7.23;;;2.73;;
26040;SDS011;13816;53.628;9.950;2023-07-13T10:13:26;9.00;;;3.03;;
26040;SDS011;13816;53.628;9.950;2023-07-13T10:15:54;9.53;;;3.10;;
26040;SDS011;13816;53.628;9.950;2023-07-13T10:18:21;7.93;;;2.77;;
26040;SDS011;13816;53.628;9.950;2023-07-13T10:20:50;6.17;;;2.30;;
26040;SDS011;13816;53.628;9.950;2023-07-13T10:23:21;12.07;;;2.93;;
26040;SDS011;13816;53.628;9.950;2023-07-13T10:25:51;10.93;;;2.97;;
26040;SDS011;13816;53.628;9.950;2023-07-13T10:30:53;7.37;;;2.90;;
26040;SDS011;13816;53.628;9.950;2023-07-13T10:33:22;10.17;;;3.10;;
26040;SDS011;13816;53.628;9.950;2023-07-13T10:35:51;11.93;;;2.70;;
26040;SDS011;13816;53.628;9.950;2023-07-13T10:38:23;8.33;;;2.43;;
26040;SDS011;13816;53.628;9.950;2023-07-13T10:40:56;6.23;;;2.30;;
26040;SDS011;13816;53.628;9.950;2023-07-13T10:43:36;4.33;;;1.80;;
26040;SDS011;13816;53.628;9.950;2023-07-13T10:46:05;4.87;;;2.07;;
26040;SDS011;13816;53.628;9.950;2023-07-13T10:48:34;3.27;;;1.80;;
26040;SDS011;13816;53.628;9.950;2023-07-13T10:51:03;5.70;;;2.40;;
26040;SDS011;13816;53.628;9.950;2023-07-13T10:53:34;6.47;;;2.00;;
26040;SDS011;13816;53.628;9.950;2023-07-13T10:58:33;4.80;;;2.40;;
26040;SDS011;13816;53.628;9.950;2023-07-13T11:01:17;8.33;;;2.17;;
26040;SDS011;13816;53.628;9.950;2023-07-13T11:04:01;9.33;;;1.90;;
26040;SDS011;13816;53.628;9.950;2023-07-13T11:06:34;7.40;;;2.20;;
26040;SDS011;13816;53.628;9.950;2023-07-13T11:11:51;3.57;;;1.93;;
26040;SDS011;13816;53.628;9.950;2023-07-13T11:14:27;13.17;;;2.43;;
26040;SDS011;13816;53.628;9.950;2023-07-13T11:16:55;7.33;;;2.63;;
26040;SDS011;13816;53.628;9.950;2023-07-13T11:19:27;7.70;;;2.23;;
26040;SDS011;13816;53.628;9.950;2023-07-13T11:24:29;7.00;;;1.90;;
26040;SDS011;13816;53.628;9.950;2023-07-13T11:26:57;3.77;;;2.20;;
26040;SDS011;13816;53.628;9.950;2023-07-13T11:31:59;9.53;;;2.20;;
26040;SDS011;13816;53.628;9.950;2023-07-13T11:34:29;4.50;;;2.20;;
26040;SDS011;13816;53.628;9.950;2023-07-13T11:36:57;9.27;;;2.10;;
26040;SDS011;13816;53.628;9.950;2023-07-13T11:39:30;4.40;;;1.87;;
26040;SDS011;13816;53.628;9.950;2023-07-13T11:42:17;7.97;;;2.23;;
26040;SDS011;13816;53.628;9.950;2023-07-13T11:44:46;5.17;;;1.50;;
26040;SDS011;13816;53.628;9.950;2023-07-13T11:47:29;5.20;;;1.70;;
26040;SDS011;13816;53.628;9.950;2023-07-13T11:49:57;8.63;;;1.40;;
26040;SDS011;13816;53.628;9.950;2023-07-13T11:52:33;11.60;;;2.00;;
26040;SDS011;13816;53.628;9.950;2023-07-13T11:55:03;10.93;;;1.97;;
26040;SDS011;13816;53.628;9.950;2023-07-13T11:57:36;4.60;;;1.73;;
26040;SDS011;13816;53.628;9.950;2023-07-13T12:00:13;5.20;;;1.90;;
26040;SDS011;13816;53.628;9.950;2023-07-13T12:02:46;5.83;;;2.10;;
26040;SDS011;13816;53.628;9.950;2023-07-13T12:05:16;3.17;;;1.67;;
26040;SDS011;13816;53.628;9.950;2023-07-13T12:07:44;5.83;;;2.40;;
26040;SDS011;13816;53.628;9.950;2023-07-13T12:10:25;13.30;;;2.03;;
26040;SDS011;13816;53.628;9.950;2023-07-13T12:12:56;9.30;;;2.47;;
26040;SDS011;13816;53.628;9.950;2023-07-13T12:15:26;12.03;;;2.37;;
26040;SDS011;13816;53.628;9.950;2023-07-13T12:17:55;9.30;;;2.80;;
26040;SDS011;13816;53.628;9.950;2023-07-13T12:20:25;5.80;;;2.57;;
26040;SDS011;13816;53.628;9.950;2023-07-13T12:22:52;7.03;;;2.70;;
26040;SDS011;13816;53.628;9.950;2023-07-13T12:25:20;6.37;;;2.43;;
26040;SDS011;13816;53.628;9.950;2023-07-13T12:27:49;8.00;;;2.70;;
26040;SDS011;13816;53.628;9.950;2023-07-13T12:30:24;4.13;;;2.03;;
26040;SDS011;13816;53.628;9.950;2023-07-13T12:33:00;8.53;;;2.63;;
26040;SDS011;13816;53.628;9.950;2023-07-13T12:35:29;6.13;;;2.53;;
26040;SDS011;13816;53.628;9.950;2023-07-13T12:38:02;7.03;;;2.13;;
26040;SDS011;13816;53.628;9.950;2023-07-13T12:40:32;10.00;;;3.03;;
26040;SDS011;13816;53.628;9.950;2023-07-13T12:43:02;6.43;;;2.60;;
26040;SDS011;13816;53.628;9.950;2023-07-13T12:45:33;6.00;;;2.20;;
26040;SDS011;13816;53.628;9.950;2023-07-13T12:48:06;9.13;;;2.27;;
26040;SDS011;13816;53.628;9.950;2023-07-13T12:50:39;7.30;;;2.43;;
26040;SDS011;13816;53.628;9.950;2023-07-13T12:53:12;7.47;;;3.00;;
26040;SDS011;13816;53.628;9.950;2023-07-13T12:55:44;8.57;;;2.60;;
26040;SDS011;13816;53.628;9.950;2023-07-13T12:58:27;9.23;;;2.60;;
26040;SDS011;13816;53.628;9.950;2023-07-13T13:00:56;5.60;;;2.80;;
26040;SDS011;13816;53.628;9.950;2023-07-13T13:03:31;8.93;;;2.50;;
26040;SDS011;13816;53.628;9.950;2023-07-13T13:08:27;5.60;;;1.93;;
26040;SDS011;13816;53.628;9.950;2023-07-13T13:10:54;6.17;;;2.10;;
26040;SDS011;13816;53.628;9.950;2023-07-13T13:13:25;3.90;;;1.70;;
26040;SDS011;13816;53.628;9.950;2023-07-13T13:15:52;6.27;;;1.80;;
26040;SDS011;13816;53.628;9.950;2023-07-13T13:18:21;3.43;;;2.13;;
26040;SDS011;13816;53.628;9.950;2023-07-13T13:20:49;5.13;;;2.40;;
26040;SDS011;13816;53.628;9.950;2023-07-13T13:23:18;2.73;;;2.07;;
26040;SDS011;13816;53.628;9.950;2023-07-13T13:25:46;7.17;;;2.10;;
26040;SDS011;13816;53.628;9.950;2023-07-13T13:28:15;4.47;;;2.10;;
26040;SDS011;13816;53.628;9.950;2023-07-13T13:30:44;4.07;;;2.17;;
26040;SDS011;13816;53.628;9.950;2023-07-13T13:33:17;4.63;;;1.83;;
26040;SDS011;13816;53.628;9.950;2023-07-13T13:35:44;3.43;;;1.93;;
26040;SDS011;13816;53.628;9.950;2023-07-13T13:38:13;7.43;;;2.10;;
26040;SDS011;13816;53.628;9.950;2023-07-13T13:40:41;4.30;;;1.80;;
26040;SDS011;13816;53.628;9.950;2023-07-13T13:43:13;4.63;;;1.70;;
26040;SDS011;13816;53.628;9.950;2023-07-13T13:45:43;3.40;;;1.80;;
26040;SDS011;13816;53.628;9.950;2023-07-13T13:48:17;2.73;;;1.90;;
26040;SDS011;13816;53.628;9.950;2023-07-13T13:50:45;4.23;;;2.00;;
26040;SDS011;13816;53.628;9.950;2023-07-13T13:53:12;9.10;;;2.20;;
26040;SDS011;13816;53.628;9.950;2023-07-13T13:55:40;5.33;;;1.77;;
26040;SDS011;13816;53.628;9.950;2023-07-13T13:58:08;6.10;;;2.30;;
26040;SDS011;13816;53.628;9.950;2023-07-13T14:00:37;4.83;;;2.07;;
26040;SDS011;13816;53.628;9.950;2023-07-13T14:03:10;6.07;;;2.10;;
26040;SDS011;13816;53.628;9.950;2023-07-13T14:05:40;4.23;;;2.07;;
26040;SDS011;13816;53.628;9.950;2023-07-13T14:08:18;3.47;;;1.90;;
26040;SDS011;13816;53.628;9.950;2023-07-13T14:10:46;3.77;;;2.00;;
26040;SDS011;13816;53.628;9.950;2023-07-13T14:13:24;8.23;;;2.73;;
26040;SDS011;13816;53.628;9.950;2023-07-13T14:15:55;4.43;;;1.83;;
26040;SDS011;13816;53.628;9.950;2023-07-13T14:18:23;3.83;;;2.10;;
26040;SDS011;13816;53.628;9.950;2023-07-13T14:20:50;4.53;;;2.13;;
26040;SDS011;13816;53.628;9.950;2023-07-13T14:23:18;4.97;;;2.17;;
26040;SDS011;13816;53.628;9.950;2023-07-13T14:25:46;3.10;;;2.13;;
26040;SDS011;13816;53.628;9.950;2023-07-13T14:28:23;2.30;;;2.10;;
26040;SDS011;13816;53.628;9.950;2023-07-13T14:30:51;2.53;;;1.90;;
26040;SDS011;13816;53.628;9.950;2023-07-13T14:33:19;4.03;;;2.37;;
26040;SDS011;13816;53.628;9.950;2023-07-13T14:35:46;8.70;;;2.03;;
26040;SDS011;13816;53.628;9.950;2023-07-13T14:38:18;6.20;;;2.10;;
26040;SDS011;13816;53.628;9.950;2023-07-13T14:40:46;5.70;;;2.50;;
26040;SDS011;13816;53.628;9.950;2023-07-13T14:43:14;7.13;;;2.33;;
26040;SDS011;13816;53.628;9.950;2023-07-13T14:45:43;4.27;;;1.90;;
26040;SDS011;13816;53.628;9.950;2023-07-13T14:48:19;5.50;;;2.30;;
26040;SDS011;13816;53.628;9.950;2023-07-13T14:50:49;3.77;;;2.37;;
26040;SDS011;13816;53.628;9.950;2023-07-13T14:53:17;2.93;;;1.93;;
26040;SDS011;13816;53.628;9.950;2023-07-13T14:55:45;3.63;;;2.27;;
26040;SDS011;13816;53.628;9.950;2023-07-13T14:58:13;4.37;;;2.10;;
26040;SDS011;13816;53.628;9.950;2023-07-13T15:00:40;4.43;;;1.87;;
26040;SDS011;13816;53.628;9.950;2023-07-13T15:03:15;5.10;;;2.33;;
26040;SDS011;13816;53.628;9.950;2023-07-13T15:05:43;5.50;;;2.80;;
26040;SDS011;13816;53.628;9.950;2023-07-13T15:08:13;2.37;;;1.90;;
26040;SDS011;13816;53.628;9.950;2023-07-13T15:10:42;5.90;;;2.70;;
26040;SDS011;13816;53.628;9.950;2023-07-13T15:13:14;6.63;;;3.00;;
26040;SDS011;13816;53.628;9.950;2023-07-13T15:15:43;5.67;;;2.57;;
26040;SDS011;13816;53.628;9.950;2023-07-13T15:18:11;3.43;;;2.13;;
26040;SDS011;13816;53.628;9.950;2023-07-13T15:20:39;7.17;;;2.27;;
26040;SDS011;13816;53.628;9.950;2023-07-13T15:23:08;3.93;;;1.97;;
26040;SDS011;13816;53.628;9.950;2023-07-13T15:25:36;5.13;;;1.87;;
26040;SDS011;13816;53.628;9.950;2023-07-13T15:28:04;2.93;;;1.90;;
26040;SDS011;13816;53.628;9.950;2023-07-13T15:30:42;3.20;;;1.67;;
26040;SDS011;13816;53.628;9.950;2023-07-13T15:33:31;5.90;;;2.20;;